sensor_id;sensor_type;location;lat;lon;timestamp;temperature;humidity
39023;DHT22;25908;51.984;5.928;2022-07-29T00:00:12;18.90;69.20
39023;DHT22;25908;51.984;5.928;2022-07-29T00:02:37;18.90;69.30
39023;DHT22;25908;51.984;5.928;2022-07-29T00:05:04;18.80;69.40
39023;DHT22;25908;51.984;5.928;2022-07-29T00:07:30;18.80;69.70
39023;DHT22;25908;51.984;5.928;2022-07-29T00:09:55;18.80;69.80
39023;DHT22;25908;51.984;5.928;2022-07-29T00:12:24;18.70;70.00
39023;DHT22;25908;51.984;5.928;2022-07-29T00:14:50;18.80;70.20
39023;DHT22;25908;51.984;5.928;2022-07-29T00:17:15;18.70;70.10
39023;DHT22;25908;51.984;5.928;2022-07-29T00:19:41;18.70;70.20
39023;DHT22;25908;51.984;5.928;2022-07-29T00:22:06;18.70;70.40
39023;DHT22;25908;51.984;5.928;2022-07-29T00:24:32;18.70;70.50
39023;DHT22;25908;51.984;5.928;2022-07-29T00:26:58;18.60;70.50
39023;DHT22;25908;51.984;5.928;2022-07-29T00:29:24;18.60;70.80
39023;DHT22;25908;51.984;5.928;2022-07-29T00:31:49;18.60;70.80
39023;DHT22;25908;51.984;5.928;2022-07-29T00:34:15;18.60;71.10
39023;DHT22;25908;51.984;5.928;2022-07-29T00:36:59;18.60;71.20
39023;DHT22;25908;51.984;5.928;2022-07-29T00:39:25;18.60;71.40
39023;DHT22;25908;51.984;5.928;2022-07-29T00:41:50;18.60;71.30
39023;DHT22;25908;51.984;5.928;2022-07-29T00:44:16;18.50;71.40
39023;DHT22;25908;51.984;5.928;2022-07-29T00:46:41;18.50;71.50
39023;DHT22;25908;51.984;5.928;2022-07-29T00:49:07;18.50;71.60
39023;DHT22;25908;51.984;5.928;2022-07-29T00:51:35;18.50;71.80
39023;DHT22;25908;51.984;5.928;2022-07-29T00:54:02;18.50;71.90
39023;DHT22;25908;51.984;5.928;2022-07-29T00:56:30;18.50;72.00
39023;DHT22;25908;51.984;5.928;2022-07-29T00:58:56;18.50;72.00
39023;DHT22;25908;51.984;5.928;2022-07-29T01:01:22;18.40;72.30
39023;DHT22;25908;51.984;5.928;2022-07-29T01:03:48;18.40;72.40
39023;DHT22;25908;51.984;5.928;2022-07-29T01:06:15;18.40;72.70
39023;DHT22;25908;51.984;5.928;2022-07-29T01:08:41;18.40;72.80
39023;DHT22;25908;51.984;5.928;2022-07-29T01:11:07;18.40;73.00
39023;DHT22;25908;51.984;5.928;2022-07-29T01:13:33;18.30;73.00
39023;DHT22;25908;51.984;5.928;2022-07-29T01:16:04;18.30;73.00
39023;DHT22;25908;51.984;5.928;2022-07-29T01:18:36;18.30;73.00
39023;DHT22;25908;51.984;5.928;2022-07-29T01:21:57;18.30;73.20
39023;DHT22;25908;51.984;5.928;2022-07-29T01:29:58;18.20;73.60
39023;DHT22;25908;51.984;5.928;2022-07-29T01:32:31;18.20;73.70
39023;DHT22;25908;51.984;5.928;2022-07-29T01:38:05;18.20;73.70
39023;DHT22;25908;51.984;5.928;2022-07-29T01:40:46;18.10;74.00
39023;DHT22;25908;51.984;5.928;2022-07-29T01:43:17;18.10;74.40
39023;DHT22;25908;51.984;5.928;2022-07-29T01:45:48;18.00;74.50
39023;DHT22;25908;51.984;5.928;2022-07-29T01:48:23;18.00;74.60
39023;DHT22;25908;51.984;5.928;2022-07-29T01:51:07;18.00;74.40
39023;DHT22;25908;51.984;5.928;2022-07-29T01:56:23;18.10;74.50
39023;DHT22;25908;51.984;5.928;2022-07-29T01:58:49;18.10;74.70
39023;DHT22;25908;51.984;5.928;2022-07-29T02:01:18;18.10;74.50
39023;DHT22;25908;51.984;5.928;2022-07-29T02:03:46;18.10;74.70
39023;DHT22;25908;51.984;5.928;2022-07-29T02:06:17;18.10;74.40
39023;DHT22;25908;51.984;5.928;2022-07-29T02:08:45;18.10;74.00
39023;DHT22;25908;51.984;5.928;2022-07-29T02:11:12;18.10;74.10
39023;DHT22;25908;51.984;5.928;2022-07-29T02:13:38;18.20;74.20
39023;DHT22;25908;51.984;5.928;2022-07-29T02:16:06;18.20;74.30
39023;DHT22;25908;51.984;5.928;2022-07-29T02:18:33;18.20;74.20
39023;DHT22;25908;51.984;5.928;2022-07-29T02:21:01;18.10;74.00
39023;DHT22;25908;51.984;5.928;2022-07-29T02:23:31;18.10;74.90
39023;DHT22;25908;51.984;5.928;2022-07-29T02:25:59;18.10;76.80
39023;DHT22;25908;51.984;5.928;2022-07-29T02:28:27;18.10;77.00
39023;DHT22;25908;51.984;5.928;2022-07-29T02:30:56;18.10;76.50
39023;DHT22;25908;51.984;5.928;2022-07-29T02:33:23;18.10;77.10
39023;DHT22;25908;51.984;5.928;2022-07-29T02:35:50;18.10;77.00
39023;DHT22;25908;51.984;5.928;2022-07-29T02:38:16;18.10;77.40
39023;DHT22;25908;51.984;5.928;2022-07-29T02:41:08;18.10;76.60
39023;DHT22;25908;51.984;5.928;2022-07-29T02:43:35;18.10;76.90
39023;DHT22;25908;51.984;5.928;2022-07-29T02:46:03;18.10;77.30
39023;DHT22;25908;51.984;5.928;2022-07-29T02:48:38;18.00;77.60
39023;DHT22;25908;51.984;5.928;2022-07-29T02:51:12;18.00;76.90
39023;DHT22;25908;51.984;5.928;2022-07-29T02:53:41;18.00;76.70
39023;DHT22;25908;51.984;5.928;2022-07-29T02:56:14;18.00;77.00
39023;DHT22;25908;51.984;5.928;2022-07-29T02:58:44;17.90;77.20
39023;DHT22;25908;51.984;5.928;2022-07-29T03:01:16;17.90;77.30
39023;DHT22;25908;51.984;5.928;2022-07-29T03:03:45;17.90;77.60
39023;DHT22;25908;51.984;5.928;2022-07-29T03:06:13;17.90;77.40
39023;DHT22;25908;51.984;5.928;2022-07-29T03:08:40;17.90;77.80
39023;DHT22;25908;51.984;5.928;2022-07-29T03:11:08;17.90;78.00
39023;DHT22;25908;51.984;5.928;2022-07-29T03:13:35;17.80;78.00
39023;DHT22;25908;51.984;5.928;2022-07-29T03:16:01;17.80;79.00
39023;DHT22;25908;51.984;5.928;2022-07-29T03:18:28;17.80;80.60
39023;DHT22;25908;51.984;5.928;2022-07-29T03:20:54;17.70;81.10
39023;DHT22;25908;51.984;5.928;2022-07-29T03:23:21;17.70;82.10
39023;DHT22;25908;51.984;5.928;2022-07-29T03:25:48;17.60;82.80
39023;DHT22;25908;51.984;5.928;2022-07-29T03:28:14;17.60;83.60
39023;DHT22;25908;51.984;5.928;2022-07-29T03:30:40;17.50;83.90
39023;DHT22;25908;51.984;5.928;2022-07-29T03:33:05;17.40;84.80
39023;DHT22;25908;51.984;5.928;2022-07-29T03:35:31;17.40;84.50
39023;DHT22;25908;51.984;5.928;2022-07-29T03:37:57;17.30;85.00
39023;DHT22;25908;51.984;5.928;2022-07-29T03:40:27;17.30;85.50
39023;DHT22;25908;51.984;5.928;2022-07-29T03:42:55;17.20;85.90
39023;DHT22;25908;51.984;5.928;2022-07-29T03:45:22;17.10;86.50
39023;DHT22;25908;51.984;5.928;2022-07-29T03:47:55;17.10;86.60
39023;DHT22;25908;51.984;5.928;2022-07-29T03:50:22;17.00;87.80
39023;DHT22;25908;51.984;5.928;2022-07-29T03:52:48;17.00;88.50
39023;DHT22;25908;51.984;5.928;2022-07-29T03:55:15;16.90;88.60
39023;DHT22;25908;51.984;5.928;2022-07-29T03:57:41;17.00;88.90
39023;DHT22;25908;51.984;5.928;2022-07-29T04:00:09;16.90;88.60
39023;DHT22;25908;51.984;5.928;2022-07-29T04:02:36;16.90;88.20
39023;DHT22;25908;51.984;5.928;2022-07-29T04:05:02;16.90;89.20
39023;DHT22;25908;51.984;5.928;2022-07-29T04:07:27;16.90;88.00
39023;DHT22;25908;51.984;5.928;2022-07-29T04:09:54;16.90;87.50
39023;DHT22;25908;51.984;5.928;2022-07-29T04:12:19;16.90;87.60
39023;DHT22;25908;51.984;5.928;2022-07-29T04:14:46;16.80;87.50
39023;DHT22;25908;51.984;5.928;2022-07-29T04:17:11;16.80;87.30
39023;DHT22;25908;51.984;5.928;2022-07-29T04:19:37;16.80;88.50
39023;DHT22;25908;51.984;5.928;2022-07-29T04:22:02;16.70;88.70
39023;DHT22;25908;51.984;5.928;2022-07-29T04:24:28;16.70;88.90
39023;DHT22;25908;51.984;5.928;2022-07-29T04:26:54;16.70;89.50
39023;DHT22;25908;51.984;5.928;2022-07-29T04:29:19;16.60;89.20
39023;DHT22;25908;51.984;5.928;2022-07-29T04:31:45;16.60;89.80
39023;DHT22;25908;51.984;5.928;2022-07-29T04:34:11;16.50;90.20
39023;DHT22;25908;51.984;5.928;2022-07-29T04:36:36;16.60;90.10
39023;DHT22;25908;51.984;5.928;2022-07-29T04:39:03;16.60;90.90
39023;DHT22;25908;51.984;5.928;2022-07-29T04:41:28;16.60;90.70
39023;DHT22;25908;51.984;5.928;2022-07-29T04:43:54;16.60;90.80
39023;DHT22;25908;51.984;5.928;2022-07-29T04:46:20;16.60;90.70
39023;DHT22;25908;51.984;5.928;2022-07-29T04:48:46;16.60;90.60
39023;DHT22;25908;51.984;5.928;2022-07-29T04:51:13;16.70;90.40
39023;DHT22;25908;51.984;5.928;2022-07-29T04:53:39;16.70;89.70
39023;DHT22;25908;51.984;5.928;2022-07-29T04:56:04;16.60;89.50
39023;DHT22;25908;51.984;5.928;2022-07-29T04:58:30;16.60;89.80
39023;DHT22;25908;51.984;5.928;2022-07-29T05:00:56;16.60;90.00
39023;DHT22;25908;51.984;5.928;2022-07-29T05:03:22;16.50;89.50
39023;DHT22;25908;51.984;5.928;2022-07-29T05:05:47;16.50;89.90
39023;DHT22;25908;51.984;5.928;2022-07-29T05:08:13;16.50;90.20
39023;DHT22;25908;51.984;5.928;2022-07-29T05:10:39;16.50;90.30
39023;DHT22;25908;51.984;5.928;2022-07-29T05:13:05;16.50;90.10
39023;DHT22;25908;51.984;5.928;2022-07-29T05:15:32;16.60;90.30
39023;DHT22;25908;51.984;5.928;2022-07-29T05:17:58;16.60;89.60
39023;DHT22;25908;51.984;5.928;2022-07-29T05:20:24;16.60;89.30
39023;DHT22;25908;51.984;5.928;2022-07-29T05:22:54;16.60;89.40
39023;DHT22;25908;51.984;5.928;2022-07-29T05:25:19;16.70;90.00
39023;DHT22;25908;51.984;5.928;2022-07-29T05:27:45;16.70;90.00
39023;DHT22;25908;51.984;5.928;2022-07-29T05:30:11;16.60;90.00
39023;DHT22;25908;51.984;5.928;2022-07-29T05:32:36;16.70;90.00
39023;DHT22;25908;51.984;5.928;2022-07-29T05:35:02;16.60;89.60
39023;DHT22;25908;51.984;5.928;2022-07-29T05:37:28;16.50;89.30
39023;DHT22;25908;51.984;5.928;2022-07-29T05:39:53;16.50;89.90
39023;DHT22;25908;51.984;5.928;2022-07-29T05:42:19;16.50;90.10
39023;DHT22;25908;51.984;5.928;2022-07-29T05:44:44;16.50;90.10
39023;DHT22;25908;51.984;5.928;2022-07-29T05:47:10;16.50;90.20
39023;DHT22;25908;51.984;5.928;2022-07-29T05:49:35;16.60;90.10
39023;DHT22;25908;51.984;5.928;2022-07-29T05:52:01;16.60;90.20
39023;DHT22;25908;51.984;5.928;2022-07-29T05:54:26;16.70;90.10
39023;DHT22;25908;51.984;5.928;2022-07-29T05:56:52;16.70;90.00
39023;DHT22;25908;51.984;5.928;2022-07-29T05:59:17;16.70;90.00
39023;DHT22;25908;51.984;5.928;2022-07-29T06:01:43;16.70;90.10
39023;DHT22;25908;51.984;5.928;2022-07-29T06:04:08;16.70;90.20
39023;DHT22;25908;51.984;5.928;2022-07-29T06:06:34;16.70;90.30
39023;DHT22;25908;51.984;5.928;2022-07-29T06:09:01;16.70;90.00
39023;DHT22;25908;51.984;5.928;2022-07-29T06:11:27;16.80;89.70
39023;DHT22;25908;51.984;5.928;2022-07-29T06:13:52;16.90;89.10
39023;DHT22;25908;51.984;5.928;2022-07-29T06:16:18;16.90;88.80
39023;DHT22;25908;51.984;5.928;2022-07-29T06:18:44;16.90;89.00
39023;DHT22;25908;51.984;5.928;2022-07-29T06:21:10;17.00;88.60
39023;DHT22;25908;51.984;5.928;2022-07-29T06:23:39;17.00;88.40
39023;DHT22;25908;51.984;5.928;2022-07-29T06:26:05;17.00;88.10
39023;DHT22;25908;51.984;5.928;2022-07-29T06:28:32;17.10;88.10
39023;DHT22;25908;51.984;5.928;2022-07-29T06:30:58;17.20;87.90
39023;DHT22;25908;51.984;5.928;2022-07-29T06:33:23;17.20;87.20
39023;DHT22;25908;51.984;5.928;2022-07-29T06:35:49;17.30;87.70
39023;DHT22;25908;51.984;5.928;2022-07-29T06:38:15;17.30;86.60
39023;DHT22;25908;51.984;5.928;2022-07-29T06:40:44;17.30;87.30
39023;DHT22;25908;51.984;5.928;2022-07-29T06:43:30;17.30;87.90
39023;DHT22;25908;51.984;5.928;2022-07-29T06:46:16;17.40;87.50
39023;DHT22;25908;51.984;5.928;2022-07-29T06:48:44;17.50;85.80
39023;DHT22;25908;51.984;5.928;2022-07-29T06:51:11;17.60;85.90
39023;DHT22;25908;51.984;5.928;2022-07-29T06:53:37;17.70;85.40
39023;DHT22;25908;51.984;5.928;2022-07-29T06:56:04;17.80;85.40
39023;DHT22;25908;51.984;5.928;2022-07-29T06:58:31;17.90;84.00
39023;DHT22;25908;51.984;5.928;2022-07-29T07:00:58;18.10;83.90
39023;DHT22;25908;51.984;5.928;2022-07-29T07:03:24;18.10;83.30
39023;DHT22;25908;51.984;5.928;2022-07-29T07:05:52;18.20;84.00
39023;DHT22;25908;51.984;5.928;2022-07-29T07:08:17;18.40;83.80
39023;DHT22;25908;51.984;5.928;2022-07-29T07:10:44;18.40;84.00
39023;DHT22;25908;51.984;5.928;2022-07-29T07:13:10;18.50;83.30
39023;DHT22;25908;51.984;5.928;2022-07-29T07:15:36;18.60;82.80
39023;DHT22;25908;51.984;5.928;2022-07-29T07:18:03;18.60;82.80
39023;DHT22;25908;51.984;5.928;2022-07-29T07:20:29;18.60;83.70
39023;DHT22;25908;51.984;5.928;2022-07-29T07:22:54;18.60;83.10
39023;DHT22;25908;51.984;5.928;2022-07-29T07:25:20;18.70;82.90
39023;DHT22;25908;51.984;5.928;2022-07-29T07:27:45;18.70;83.70
39023;DHT22;25908;51.984;5.928;2022-07-29T07:30:11;18.70;83.20
39023;DHT22;25908;51.984;5.928;2022-07-29T07:32:37;18.70;82.60
39023;DHT22;25908;51.984;5.928;2022-07-29T07:35:04;18.70;83.20
39023;DHT22;25908;51.984;5.928;2022-07-29T07:37:31;18.70;83.70
39023;DHT22;25908;51.984;5.928;2022-07-29T07:39:57;18.80;83.90
39023;DHT22;25908;51.984;5.928;2022-07-29T07:42:23;18.70;83.80
39023;DHT22;25908;51.984;5.928;2022-07-29T07:44:49;18.80;83.10
39023;DHT22;25908;51.984;5.928;2022-07-29T07:47:15;18.80;82.70
39023;DHT22;25908;51.984;5.928;2022-07-29T07:49:48;18.80;83.00
39023;DHT22;25908;51.984;5.928;2022-07-29T07:52:15;18.70;83.30
39023;DHT22;25908;51.984;5.928;2022-07-29T07:54:41;18.80;83.90
39023;DHT22;25908;51.984;5.928;2022-07-29T07:57:08;18.80;83.60
39023;DHT22;25908;51.984;5.928;2022-07-29T07:59:33;18.70;83.60
39023;DHT22;25908;51.984;5.928;2022-07-29T08:01:59;18.70;82.70
39023;DHT22;25908;51.984;5.928;2022-07-29T08:04:26;18.70;82.60
39023;DHT22;25908;51.984;5.928;2022-07-29T08:06:51;18.70;83.70
39023;DHT22;25908;51.984;5.928;2022-07-29T08:09:19;18.70;83.50
39023;DHT22;25908;51.984;5.928;2022-07-29T08:11:45;18.80;83.70
39023;DHT22;25908;51.984;5.928;2022-07-29T08:14:11;18.80;84.10
39023;DHT22;25908;51.984;5.928;2022-07-29T08:16:36;18.80;83.60
39023;DHT22;25908;51.984;5.928;2022-07-29T08:19:02;18.90;83.70
39023;DHT22;25908;51.984;5.928;2022-07-29T08:21:27;18.90;83.40
39023;DHT22;25908;51.984;5.928;2022-07-29T08:23:53;18.90;83.00
39023;DHT22;25908;51.984;5.928;2022-07-29T08:26:38;19.00;82.70
39023;DHT22;25908;51.984;5.928;2022-07-29T08:29:04;19.10;82.90
39023;DHT22;25908;51.984;5.928;2022-07-29T08:31:29;19.20;82.70
39023;DHT22;25908;51.984;5.928;2022-07-29T08:33:55;19.20;82.90
39023;DHT22;25908;51.984;5.928;2022-07-29T08:36:21;19.30;82.50
39023;DHT22;25908;51.984;5.928;2022-07-29T08:38:47;19.30;82.60
39023;DHT22;25908;51.984;5.928;2022-07-29T08:41:14;19.30;82.40
39023;DHT22;25908;51.984;5.928;2022-07-29T08:43:40;19.30;82.20
39023;DHT22;25908;51.984;5.928;2022-07-29T08:46:06;19.40;82.30
39023;DHT22;25908;51.984;5.928;2022-07-29T08:48:32;19.40;81.60
39023;DHT22;25908;51.984;5.928;2022-07-29T08:50:58;19.40;81.50
39023;DHT22;25908;51.984;5.928;2022-07-29T08:53:26;19.40;81.40
39023;DHT22;25908;51.984;5.928;2022-07-29T08:55:53;19.40;81.60
39023;DHT22;25908;51.984;5.928;2022-07-29T08:58:19;19.40;82.10
39023;DHT22;25908;51.984;5.928;2022-07-29T09:00:50;19.40;81.50
39023;DHT22;25908;51.984;5.928;2022-07-29T09:03:18;19.40;80.80
39023;DHT22;25908;51.984;5.928;2022-07-29T09:05:45;19.40;81.60
39023;DHT22;25908;51.984;5.928;2022-07-29T09:08:12;19.40;81.70
39023;DHT22;25908;51.984;5.928;2022-07-29T09:10:39;19.40;82.20
39023;DHT22;25908;51.984;5.928;2022-07-29T09:13:04;19.40;82.20
39023;DHT22;25908;51.984;5.928;2022-07-29T09:15:30;19.30;82.20
39023;DHT22;25908;51.984;5.928;2022-07-29T09:17:55;19.40;82.70
39023;DHT22;25908;51.984;5.928;2022-07-29T09:20:24;19.30;82.80
39023;DHT22;25908;51.984;5.928;2022-07-29T09:22:51;19.30;83.50
39023;DHT22;25908;51.984;5.928;2022-07-29T09:25:38;19.40;83.60
39023;DHT22;25908;51.984;5.928;2022-07-29T09:28:10;19.40;82.80
39023;DHT22;25908;51.984;5.928;2022-07-29T09:30:53;19.30;82.20
39023;DHT22;25908;51.984;5.928;2022-07-29T09:33:21;19.30;82.50
39023;DHT22;25908;51.984;5.928;2022-07-29T09:36:02;19.30;83.40
39023;DHT22;25908;51.984;5.928;2022-07-29T09:38:29;19.30;83.10
39023;DHT22;25908;51.984;5.928;2022-07-29T09:40:58;19.30;82.90
39023;DHT22;25908;51.984;5.928;2022-07-29T09:43:24;19.40;82.90
39023;DHT22;25908;51.984;5.928;2022-07-29T09:45:50;19.40;82.90
39023;DHT22;25908;51.984;5.928;2022-07-29T09:48:18;19.40;83.00
39023;DHT22;25908;51.984;5.928;2022-07-29T09:50:45;19.40;83.10
39023;DHT22;25908;51.984;5.928;2022-07-29T09:53:12;19.40;82.90
39023;DHT22;25908;51.984;5.928;2022-07-29T09:55:54;19.40;83.10
39023;DHT22;25908;51.984;5.928;2022-07-29T09:58:21;19.40;83.30
39023;DHT22;25908;51.984;5.928;2022-07-29T10:00:49;19.40;83.30
39023;DHT22;25908;51.984;5.928;2022-07-29T10:03:16;19.50;83.30
39023;DHT22;25908;51.984;5.928;2022-07-29T10:05:43;19.60;83.50
39023;DHT22;25908;51.984;5.928;2022-07-29T10:08:09;19.80;83.20
39023;DHT22;25908;51.984;5.928;2022-07-29T10:10:38;20.00;82.80
39023;DHT22;25908;51.984;5.928;2022-07-29T10:13:09;20.10;82.00
39023;DHT22;25908;51.984;5.928;2022-07-29T10:15:37;20.30;81.50
39023;DHT22;25908;51.984;5.928;2022-07-29T10:18:04;20.60;80.30
39023;DHT22;25908;51.984;5.928;2022-07-29T10:20:31;21.00;80.10
39023;DHT22;25908;51.984;5.928;2022-07-29T10:22:56;21.40;78.60
39023;DHT22;25908;51.984;5.928;2022-07-29T10:25:23;21.80;76.20
39023;DHT22;25908;51.984;5.928;2022-07-29T10:27:49;21.90;75.20
39023;DHT22;25908;51.984;5.928;2022-07-29T10:30:17;22.00;75.10
39023;DHT22;25908;51.984;5.928;2022-07-29T10:36:22;22.50;74.60
39023;DHT22;25908;51.984;5.928;2022-07-29T10:41:43;23.20;71.80
39023;DHT22;25908;51.984;5.928;2022-07-29T10:44:22;23.50;69.90
39023;DHT22;25908;51.984;5.928;2022-07-29T10:46:49;23.60;68.20
39023;DHT22;25908;51.984;5.928;2022-07-29T10:49:20;23.50;68.70
39023;DHT22;25908;51.984;5.928;2022-07-29T10:52:07;23.50;69.00
39023;DHT22;25908;51.984;5.928;2022-07-29T10:59:36;23.30;70.40
39023;DHT22;25908;51.984;5.928;2022-07-29T11:02:02;23.50;70.90
39023;DHT22;25908;51.984;5.928;2022-07-29T11:07:16;23.80;68.40
39023;DHT22;25908;51.984;5.928;2022-07-29T11:09:41;23.80;67.90
39023;DHT22;25908;51.984;5.928;2022-07-29T11:15:01;24.00;68.20
39023;DHT22;25908;51.984;5.928;2022-07-29T11:17:28;23.90;68.10
39023;DHT22;25908;51.984;5.928;2022-07-29T11:22:57;24.20;68.70
39023;DHT22;25908;51.984;5.928;2022-07-29T11:25:23;24.30;67.40
39023;DHT22;25908;51.984;5.928;2022-07-29T11:27:49;24.40;66.70
39023;DHT22;25908;51.984;5.928;2022-07-29T11:30:14;24.60;66.70
39023;DHT22;25908;51.984;5.928;2022-07-29T11:32:44;24.70;66.50
39023;DHT22;25908;51.984;5.928;2022-07-29T11:35:23;25.00;66.80
39023;DHT22;25908;51.984;5.928;2022-07-29T11:38:27;25.30;63.90
39023;DHT22;25908;51.984;5.928;2022-07-29T11:44:09;25.60;64.30
39023;DHT22;25908;51.984;5.928;2022-07-29T11:46:50;25.70;63.30
39023;DHT22;25908;51.984;5.928;2022-07-29T11:51:51;25.90;61.50
39023;DHT22;25908;51.984;5.928;2022-07-29T11:54:23;25.90;61.00
39023;DHT22;25908;51.984;5.928;2022-07-29T11:56:49;25.70;60.80
39023;DHT22;25908;51.984;5.928;2022-07-29T11:59:15;25.70;61.20
39023;DHT22;25908;51.984;5.928;2022-07-29T12:01:58;25.70;60.80
39023;DHT22;25908;51.984;5.928;2022-07-29T12:04:24;25.70;60.40
39023;DHT22;25908;51.984;5.928;2022-07-29T12:06:52;25.70;60.10
39023;DHT22;25908;51.984;5.928;2022-07-29T12:09:18;25.70;60.50
39023;DHT22;25908;51.984;5.928;2022-07-29T12:11:45;25.80;60.60
39023;DHT22;25908;51.984;5.928;2022-07-29T12:14:30;25.80;60.50
39023;DHT22;25908;51.984;5.928;2022-07-29T12:16:57;25.90;61.10
39023;DHT22;25908;51.984;5.928;2022-07-29T12:19:22;26.10;60.10
39023;DHT22;25908;51.984;5.928;2022-07-29T12:21:50;26.10;60.10
39023;DHT22;25908;51.984;5.928;2022-07-29T12:24:17;26.20;59.90
39023;DHT22;25908;51.984;5.928;2022-07-29T12:26:50;26.20;60.20
39023;DHT22;25908;51.984;5.928;2022-07-29T12:29:16;26.10;59.50
39023;DHT22;25908;51.984;5.928;2022-07-29T12:31:43;26.10;59.50
39023;DHT22;25908;51.984;5.928;2022-07-29T12:34:13;26.10;59.70
39023;DHT22;25908;51.984;5.928;2022-07-29T12:36:43;26.00;59.60
39023;DHT22;25908;51.984;5.928;2022-07-29T12:39:10;26.00;59.30
39023;DHT22;25908;51.984;5.928;2022-07-29T12:41:36;25.90;60.10
39023;DHT22;25908;51.984;5.928;2022-07-29T12:44:02;25.80;58.90
39023;DHT22;25908;51.984;5.928;2022-07-29T12:46:27;25.70;58.70
39023;DHT22;25908;51.984;5.928;2022-07-29T12:48:54;25.70;59.40
39023;DHT22;25908;51.984;5.928;2022-07-29T12:51:40;25.70;59.20
39023;DHT22;25908;51.984;5.928;2022-07-29T12:54:13;25.60;59.20
39023;DHT22;25908;51.984;5.928;2022-07-29T12:56:40;25.60;60.30
39023;DHT22;25908;51.984;5.928;2022-07-29T12:59:18;25.70;60.10
39023;DHT22;25908;51.984;5.928;2022-07-29T13:01:44;25.70;60.40
39023;DHT22;25908;51.984;5.928;2022-07-29T13:04:10;25.70;59.60
39023;DHT22;25908;51.984;5.928;2022-07-29T13:11:34;25.60;58.50
39023;DHT22;25908;51.984;5.928;2022-07-29T13:14:00;25.50;58.60
39023;DHT22;25908;51.984;5.928;2022-07-29T13:16:25;25.50;58.40
39023;DHT22;25908;51.984;5.928;2022-07-29T13:19:04;25.50;58.30
39023;DHT22;25908;51.984;5.928;2022-07-29T13:21:29;25.50;57.80
39023;DHT22;25908;51.984;5.928;2022-07-29T13:23:55;25.40;56.80
39023;DHT22;25908;51.984;5.928;2022-07-29T13:26:20;25.30;56.80
39023;DHT22;25908;51.984;5.928;2022-07-29T13:28:46;25.20;57.20
39023;DHT22;25908;51.984;5.928;2022-07-29T13:31:12;25.20;57.10
39023;DHT22;25908;51.984;5.928;2022-07-29T13:33:37;25.10;57.00
39023;DHT22;25908;51.984;5.928;2022-07-29T13:36:03;25.00;57.50
39023;DHT22;25908;51.984;5.928;2022-07-29T13:38:28;25.00;57.50
39023;DHT22;25908;51.984;5.928;2022-07-29T13:40:54;25.10;57.40
39023;DHT22;25908;51.984;5.928;2022-07-29T13:43:19;25.10;56.50
39023;DHT22;25908;51.984;5.928;2022-07-29T13:45:45;25.10;56.60
39023;DHT22;25908;51.984;5.928;2022-07-29T13:48:10;25.10;56.70
39023;DHT22;25908;51.984;5.928;2022-07-29T13:50:36;25.10;56.60
39023;DHT22;25908;51.984;5.928;2022-07-29T13:53:02;25.20;56.60
39023;DHT22;25908;51.984;5.928;2022-07-29T13:55:27;25.20;56.40
39023;DHT22;25908;51.984;5.928;2022-07-29T13:57:53;25.20;56.40
39023;DHT22;25908;51.984;5.928;2022-07-29T14:00:19;25.20;56.70
39023;DHT22;25908;51.984;5.928;2022-07-29T14:02:44;25.20;56.40
39023;DHT22;25908;51.984;5.928;2022-07-29T14:05:10;25.20;56.30
39023;DHT22;25908;51.984;5.928;2022-07-29T14:07:39;25.20;55.80
39023;DHT22;25908;51.984;5.928;2022-07-29T14:10:05;25.20;55.80
39023;DHT22;25908;51.984;5.928;2022-07-29T14:12:31;25.20;56.10
39023;DHT22;25908;51.984;5.928;2022-07-29T14:14:56;25.10;56.40
39023;DHT22;25908;51.984;5.928;2022-07-29T14:17:22;25.10;56.90
39023;DHT22;25908;51.984;5.928;2022-07-29T14:19:48;25.10;57.20
39023;DHT22;25908;51.984;5.928;2022-07-29T14:22:14;25.10;57.00
39023;DHT22;25908;51.984;5.928;2022-07-29T14:24:39;25.20;57.20
39023;DHT22;25908;51.984;5.928;2022-07-29T14:27:06;25.20;57.50
39023;DHT22;25908;51.984;5.928;2022-07-29T14:29:33;25.20;57.10
39023;DHT22;25908;51.984;5.928;2022-07-29T14:31:59;25.20;57.00
39023;DHT22;25908;51.984;5.928;2022-07-29T14:34:24;25.20;57.50
39023;DHT22;25908;51.984;5.928;2022-07-29T14:36:50;25.10;56.50
39023;DHT22;25908;51.984;5.928;2022-07-29T14:39:15;25.10;56.00
39023;DHT22;25908;51.984;5.928;2022-07-29T14:41:42;25.10;55.90
39023;DHT22;25908;51.984;5.928;2022-07-29T14:44:07;25.10;56.40
39023;DHT22;25908;51.984;5.928;2022-07-29T14:46:33;25.10;56.30
39023;DHT22;25908;51.984;5.928;2022-07-29T14:49:01;25.10;56.20
39023;DHT22;25908;51.984;5.928;2022-07-29T14:51:26;25.10;56.10
39023;DHT22;25908;51.984;5.928;2022-07-29T14:53:52;25.10;56.30
39023;DHT22;25908;51.984;5.928;2022-07-29T14:56:17;25.10;56.30
39023;DHT22;25908;51.984;5.928;2022-07-29T14:58:43;25.20;56.30
39023;DHT22;25908;51.984;5.928;2022-07-29T15:01:09;25.20;55.90
39023;DHT22;25908;51.984;5.928;2022-07-29T15:03:34;25.20;56.10
39023;DHT22;25908;51.984;5.928;2022-07-29T15:06:00;25.20;56.60
39023;DHT22;25908;51.984;5.928;2022-07-29T15:08:25;25.20;57.00
39023;DHT22;25908;51.984;5.928;2022-07-29T15:10:53;25.30;56.80
39023;DHT22;25908;51.984;5.928;2022-07-29T15:13:18;25.30;56.80
39023;DHT22;25908;51.984;5.928;2022-07-29T15:15:44;25.30;55.80
39023;DHT22;25908;51.984;5.928;2022-07-29T15:18:11;25.30;56.10
39023;DHT22;25908;51.984;5.928;2022-07-29T15:20:37;25.30;56.50
39023;DHT22;25908;51.984;5.928;2022-07-29T15:23:02;25.30;56.80
39023;DHT22;25908;51.984;5.928;2022-07-29T15:25:28;25.30;56.30
39023;DHT22;25908;51.984;5.928;2022-07-29T15:27:54;25.30;55.80
39023;DHT22;25908;51.984;5.928;2022-07-29T15:30:19;25.30;55.80
39023;DHT22;25908;51.984;5.928;2022-07-29T15:32:45;25.20;55.90
39023;DHT22;25908;51.984;5.928;2022-07-29T15:35:10;25.20;56.20
39023;DHT22;25908;51.984;5.928;2022-07-29T15:37:37;25.20;56.40
39023;DHT22;25908;51.984;5.928;2022-07-29T15:40:04;25.10;56.40
39023;DHT22;25908;51.984;5.928;2022-07-29T15:42:30;25.10;56.40
39023;DHT22;25908;51.984;5.928;2022-07-29T15:44:55;25.10;56.30
39023;DHT22;25908;51.984;5.928;2022-07-29T15:47:22;25.00;55.80
39023;DHT22;25908;51.984;5.928;2022-07-29T15:49:47;25.00;55.80
39023;DHT22;25908;51.984;5.928;2022-07-29T15:52:14;24.90;56.20
39023;DHT22;25908;51.984;5.928;2022-07-29T15:54:40;24.90;56.70
39023;DHT22;25908;51.984;5.928;2022-07-29T15:57:06;24.90;56.70
39023;DHT22;25908;51.984;5.928;2022-07-29T15:59:32;24.80;56.30
39023;DHT22;25908;51.984;5.928;2022-07-29T16:02:00;24.80;56.30
39023;DHT22;25908;51.984;5.928;2022-07-29T16:04:26;24.80;56.40
39023;DHT22;25908;51.984;5.928;2022-07-29T16:06:52;24.80;56.50
39023;DHT22;25908;51.984;5.928;2022-07-29T16:09:18;24.70;56.40
39023;DHT22;25908;51.984;5.928;2022-07-29T16:11:44;24.70;55.80
39023;DHT22;25908;51.984;5.928;2022-07-29T16:14:11;24.70;56.20